Time;durP1;ratioP1;P1;durP2;ratioP2;P2;SDS_P1;SDS_P2;PMS_P1;PMS_P2;Temp;Humidity;BMP_temperature;BMP_pressure;BME280_temperature;BME280_humidity;BME280_pressure;Samples;Min_cycle;Max_cycle;Signal;HPM_P1;HPM_P2
2021/05/27 00:01:59;;;;;;;3.08;2.03;;;15.40;99.90;;;;;;12036515;28;20049;-77
2021/05/27 00:07:47;;;;;;;5.32;2.70;;;15.30;99.90;;;;;;12034863;28;20056;-77
2021/05/27 00:13:33;;;;;;;3.22;2.20;;;15.30;99.90;;;;;;12008449;28;20040;-77
2021/05/27 00:19:19;;;;;;;4.45;1.95;;;15.30;99.90;;;;;;12382342;22;20056;-77
2021/05/27 00:25:08;;;;;;;3.30;1.98;;;15.30;99.90;;;;;;11971512;28;20048;-78
2021/05/27 00:30:55;;;;;;;4.43;2.33;;;15.30;99.90;;;;;;11980977;28;20071;-78
2021/05/27 00:36:41;;;;;;;4.82;2.38;;;15.30;99.90;;;;;;11962823;28;20050;-77
2021/05/27 00:42:28;;;;;;;5.45;2.33;;;15.30;99.90;;;;;;11985934;28;20068;-78
2021/05/27 00:54:17;;;;;;;4.70;2.13;;;15.30;99.90;;;;;;11991070;28;20068;-78
2021/05/27 01:00:07;;;;;;;4.82;2.00;;;15.30;99.90;;;;;;11972072;28;20050;-77
2021/05/27 01:05:54;;;;;;;2.92;2.08;;;15.20;99.90;;;;;;11972805;28;20046;-77
2021/05/27 01:11:40;;;;;;;6.43;2.10;;;15.10;99.90;;;;;;11986254;28;20098;-77
2021/05/27 01:17:27;;;;;;;3.90;2.15;;;15.10;99.90;;;;;;11987511;28;20048;-78
2021/05/27 01:23:15;;;;;;;4.63;2.28;;;15.10;99.90;;;;;;11951224;28;20049;-77
2021/05/27 01:29:01;;;;;;;4.13;2.40;;;15.10;99.90;;;;;;11979015;28;20056;-77
2021/05/27 01:34:48;;;;;;;4.88;2.20;;;15.10;99.90;;;;;;11963695;28;20064;-77
2021/05/27 01:40:35;;;;;;;6.43;2.40;;;15.00;99.90;;;;;;11977160;28;20054;-77
2021/05/27 01:46:22;;;;;;;5.28;2.20;;;14.90;99.90;;;;;;11970289;28;20049;-77
2021/05/27 01:52:09;;;;;;;6.75;2.40;;;14.80;99.90;;;;;;11950955;28;20090;-76
2021/05/27 01:57:57;;;;;;;5.88;2.42;;;14.70;99.90;;;;;;11983292;28;20477;-76
2021/05/27 02:03:43;;;;;;;6.70;2.30;;;14.60;99.90;;;;;;11988895;28;20057;-73
2021/05/27 02:09:29;;;;;;;4.68;2.58;;;14.50;99.90;;;;;;11979371;28;20056;-73
2021/05/27 02:15:17;;;;;;;4.82;2.50;;;14.40;99.90;;;;;;11961319;28;20053;-73
2021/05/27 02:21:03;;;;;;;3.72;1.75;;;14.30;99.90;;;;;;11954437;28;20555;-73
2021/05/27 02:26:49;;;;;;;4.32;2.30;;;14.30;99.90;;;;;;11983189;28;20474;-73
2021/05/27 02:32:37;;;;;;;6.47;2.25;;;14.20;99.90;;;;;;11979511;28;20049;-73
2021/05/27 02:38:23;;;;;;;7.70;2.92;;;14.10;99.90;;;;;;11981261;28;20179;-73
2021/05/27 02:44:10;;;;;;;2.97;2.40;;;14.00;99.90;;;;;;11990881;28;20107;-74
2021/05/27 02:49:57;;;;;;;2.55;2.22;;;14.00;99.90;;;;;;11984221;28;20061;-73
2021/05/27 02:55:44;;;;;;;6.45;2.50;;;13.90;99.90;;;;;;11985392;28;20060;-73
2021/05/27 03:01:30;;;;;;;6.20;2.28;;;13.90;99.90;;;;;;11983639;28;20094;-73
2021/05/27 03:07:17;;;;;;;7.03;2.88;;;13.90;99.90;;;;;;11979353;28;20060;-73
2021/05/27 03:13:04;;;;;;;4.60;3.03;;;13.90;99.90;;;;;;11966835;28;20506;-73
2021/05/27 03:18:51;;;;;;;5.38;2.72;;;13.80;99.90;;;;;;11974114;28;20064;-73
2021/05/27 03:24:38;;;;;;;3.67;2.53;;;13.70;99.90;;;;;;11984269;28;20071;-74
2021/05/27 03:30:24;;;;;;;5.47;2.47;;;13.60;99.90;;;;;;11980316;28;20045;-74
2021/05/27 03:36:11;;;;;;;9.32;2.55;;;13.60;99.90;;;;;;11985423;28;20045;-73
2021/05/27 03:41:58;;;;;;;6.53;3.25;;;13.50;99.90;;;;;;11987390;28;20095;-73
2021/05/27 03:47:45;;;;;;;20.42;4.90;;;13.50;99.90;;;;;;11961161;28;20041;-74
2021/05/27 03:53:31;;;;;;;13.77;4.82;;;13.50;99.90;;;;;;11970238;28;20443;-74
2021/05/27 04:11:31;;;;;;;6.20;3.72;;;13.40;99.90;;;;;;11985274;28;20033;-75
2021/05/27 04:17:19;;;;;;;10.65;3.88;;;13.40;99.90;;;;;;11986309;28;20419;-75
2021/05/27 04:23:07;;;;;;;5.35;3.10;;;13.20;99.90;;;;;;11985854;28;20058;-74
2021/05/27 04:28:54;;;;;;;6.97;3.10;;;13.20;99.90;;;;;;11984399;28;20061;-72
2021/05/27 04:34:41;;;;;;;7.40;3.53;;;13.30;99.90;;;;;;11951871;28;20049;-73
2021/05/27 04:40:28;;;;;;;8.60;3.40;;;13.30;99.90;;;;;;11974279;28;20068;-74
2021/05/27 04:46:15;;;;;;;6.30;3.00;;;13.30;99.90;;;;;;11971431;28;20057;-73
2021/05/27 04:52:02;;;;;;;11.25;3.70;;;13.40;99.90;;;;;;11982465;28;20053;-73
2021/05/27 04:57:51;;;;;;;7.63;3.30;;;13.40;99.90;;;;;;11977524;28;20063;-74
2021/05/27 05:03:38;;;;;;;4.72;3.53;;;13.40;99.90;;;;;;11978282;28;20076;-74
2021/05/27 06:08:17;;;;;;;11.18;4.70;;;12.90;99.90;;;;;;12119911;27;20874;-73
2021/05/27 06:14:04;;;;;;;8.60;5.28;;;13.60;99.90;;;;;;12092458;28;20062;-72
2021/05/27 06:19:50;;;;;;;10.27;5.03;;;14.10;99.90;;;;;;12109661;28;20491;-72
2021/05/27 07:05:48;;;;;;;9.48;4.30;;;14.40;99.90;;;;;;12111916;27;20137;-72
2021/05/27 07:11:35;;;;;;;8.35;4.18;;;15.00;99.90;;;;;;12124153;28;20096;-72
2021/05/27 07:17:21;;;;;;;14.10;3.60;;;15.30;99.90;;;;;;12086133;28;20048;-72
2021/05/27 07:23:09;;;;;;;10.90;3.20;;;15.50;99.90;;;;;;12116783;27;20513;-72
2021/05/27 07:28:57;;;;;;;10.82;3.38;;;15.60;99.90;;;;;;12115505;27;20052;-72
2021/05/27 07:34:45;;;;;;;8.02;3.15;;;15.70;99.90;;;;;;12076866;27;20048;-72
2021/05/27 07:40:33;;;;;;;8.43;2.83;;;15.90;99.90;;;;;;12102938;27;20068;-72
2021/05/27 07:46:20;;;;;;;8.05;2.45;;;16.00;99.90;;;;;;12072366;28;20426;-73
2021/05/27 07:52:07;;;;;;;6.25;2.55;;;16.00;99.90;;;;;;12118050;28;20604;-73
2021/05/27 07:57:54;;;;;;;7.07;1.90;;;16.00;99.90;;;;;;12127572;27;20055;-73
2021/05/27 08:03:40;;;;;;;5.88;2.00;;;15.90;98.70;;;;;;12128174;28;20051;-76
2021/05/27 08:09:27;;;;;;;12.38;2.35;;;16.00;98.90;;;;;;12109391;27;20048;-79
2021/05/27 08:15:18;;;;;;;4.68;1.95;;;15.90;95.90;;;;;;12087941;28;20062;-80
2021/05/27 08:21:05;;;;;;;5.43;1.88;;;16.10;95.50;;;;;;12078897;28;20565;-80
2021/05/27 08:26:52;;;;;;;3.55;1.73;;;16.20;94.60;;;;;;12074386;28;20055;-80
2021/05/27 08:32:39;;;;;;;4.65;1.80;;;16.20;95.30;;;;;;12096844;28;20174;-79
2021/05/27 08:38:25;;;;;;;2.20;1.80;;;16.10;93.80;;;;;;12057105;28;20041;-80
2021/05/27 08:44:13;;;;;;;7.57;1.67;;;16.30;93.40;;;;;;12067379;27;20055;-82
2021/05/27 08:50:02;;;;;;;6.45;1.98;;;16.30;91.50;;;;;;12044536;28;20040;-82
2021/05/27 08:55:50;;;;;;;4.95;1.90;;;16.60;91.90;;;;;;12084626;28;20047;-84
2021/05/27 09:02:01;;;;;;;6.95;2.05;;;16.60;91.70;;;;;;12099476;28;20195;-78
2021/05/27 09:07:49;;;;;;;3.28;1.63;;;16.80;91.80;;;;;;12107447;27;20479;-75
2021/05/27 09:13:37;;;;;;;6.75;1.90;;;17.00;90.50;;;;;;12092698;28;20044;-75
2021/05/27 09:19:23;;;;;;;5.28;1.52;;;17.10;90.60;;;;;;12091742;28;20746;-76
2021/05/27 09:25:25;;;;;;;6.93;2.00;;;17.30;90.80;;;;;;12094361;28;20724;-77
2021/05/27 09:31:13;;;;;;;6.25;1.80;;;17.50;89.50;;;;;;12094151;28;20044;-78
2021/05/27 09:36:59;;;;;;;4.97;1.60;;;17.70;88.60;;;;;;12096173;28;20295;-78
2021/05/27 09:42:50;;;;;;;5.00;1.75;;;17.90;88.10;;;;;;12095634;28;20621;-77
2021/05/27 09:48:36;;;;;;;3.80;1.67;;;18.10;87.50;;;;;;12091059;27;20051;-78
2021/05/27 09:54:23;;;;;;;6.88;1.98;;;18.20;82.30;;;;;;12070723;27;20177;-78
2021/05/27 10:00:26;;;;;;;4.18;1.50;;;18.30;82.50;;;;;;12074680;28;20044;-78
2021/05/27 10:06:13;;;;;;;7.95;1.92;;;18.30;80.90;;;;;;12097794;28;20044;-79
2021/05/27 10:11:59;;;;;;;7.95;2.00;;;18.30;80.90;;;;;;12094952;28;20052;-79
2021/05/27 10:17:50;;;;;;;5.60;1.70;;;18.20;79.60;;;;;;12071539;28;20551;-79
2021/05/27 10:23:37;;;;;;;8.02;1.70;;;18.10;79.90;;;;;;12045661;28;20491;-78
2021/05/27 10:29:24;;;;;;;6.88;2.00;;;18.00;79.80;;;;;;12070261;28;20049;-79
2021/05/27 10:35:13;;;;;;;4.97;1.45;;;17.90;80.50;;;;;;12055608;28;20413;-79
2021/05/27 10:40:59;;;;;;;2.53;1.63;;;17.60;81.30;;;;;;12056469;28;20041;-79
2021/05/27 10:47:16;;;;;;;4.00;1.58;;;17.60;80.90;;;;;;12085351;28;20113;-79
2021/05/27 10:53:04;;;;;;;6.53;1.85;;;17.60;80.50;;;;;;12100238;28;20048;-78
2021/05/27 10:59:13;;;;;;;4.43;1.90;;;17.80;80.10;;;;;;12084424;28;20059;-78
2021/05/27 11:05:14;;;;;;;2.78;1.58;;;18.10;78.20;;;;;;12045059;28;20048;-78
2021/05/27 11:17:21;;;;;;;4.97;1.70;;;18.50;77.00;;;;;;12084737;27;20446;-78
2021/05/27 11:23:22;;;;;;;7.18;1.88;;;19.20;75.90;;;;;;12091244;28;20143;-75
2021/05/27 11:29:13;;;;;;;4.35;1.50;;;19.50;75.50;;;;;;12084302;27;20511;-74
2021/05/27 11:35:00;;;;;;;6.15;1.50;;;19.90;73.60;;;;;;12088988;27;20055;-75
2021/05/27 11:40:49;;;;;;;7.93;1.70;;;20.30;71.60;;;;;;12099418;28;20103;-74
2021/05/27 11:46:35;;;;;;;3.03;1.50;;;20.40;68.90;;;;;;12074411;27;20040;-75
2021/05/27 11:52:22;;;;;;;2.45;1.30;;;20.70;67.10;;;;;;12091305;27;20047;-76
2021/05/27 11:58:09;;;;;;;6.28;1.67;;;20.90;64.50;;;;;;12096690;28;20493;-75
2021/05/27 12:04:13;;;;;;;6.25;1.67;;;20.70;64.40;;;;;;12094287;28;20055;-75
2021/05/27 12:10:05;;;;;;;3.58;1.67;;;20.30;65.70;;;;;;12093185;28;20056;-75
2021/05/27 12:15:52;;;;;;;8.87;1.73;;;19.90;66.50;;;;;;12094436;27;20381;-75
2021/05/27 12:21:49;;;;;;;2.88;1.60;;;19.70;68.00;;;;;;12093234;27;20552;-75
2021/05/27 12:27:41;;;;;;;4.57;1.77;;;19.70;67.90;;;;;;12064453;28;20056;-75
2021/05/27 12:33:29;;;;;;;3.65;1.50;;;19.50;67.90;;;;;;12060272;28;20105;-75
2021/05/27 12:39:27;;;;;;;3.67;1.60;;;19.70;68.30;;;;;;12063426;28;20052;-75
2021/05/27 12:45:26;;;;;;;7.80;1.92;;;19.80;66.80;;;;;;12041143;28;20052;-73
2021/05/27 12:51:12;;;;;;;5.90;2.00;;;20.00;65.80;;;;;;12059437;28;20066;-74
2021/05/27 12:57:05;;;;;;;3.58;1.45;;;19.90;65.70;;;;;;12027140;28;20052;-74
2021/05/27 13:03:03;;;;;;;2.77;1.70;;;20.20;65.30;;;;;;12025157;28;20041;-74
2021/05/27 13:08:57;;;;;;;3.25;1.95;;;20.90;63.50;;;;;;12058442;28;20612;-75
2021/05/27 13:14:45;;;;;;;3.47;1.45;;;21.60;59.80;;;;;;12054921;28;20056;-75
2021/05/27 13:20:53;;;;;;;5.97;1.73;;;22.00;60.90;;;;;;12053794;28;20064;-74
2021/05/27 13:26:39;;;;;;;4.70;1.42;;;22.50;59.00;;;;;;12051499;28;20052;-73
2021/05/27 13:32:28;;;;;;;5.15;1.70;;;22.70;58.60;;;;;;12054634;28;20993;-75
2021/05/27 13:38:19;;;;;;;3.95;1.50;;;22.90;58.10;;;;;;12056183;28;20928;-75
2021/05/27 13:44:06;;;;;;;3.60;1.30;;;22.60;57.30;;;;;;12053350;28;20098;-74
2021/05/27 13:49:52;;;;;;;4.03;1.50;;;22.20;58.50;;;;;;12048134;28;20059;-74
2021/05/27 13:55:49;;;;;;;4.93;1.88;;;21.60;59.10;;;;;;12051833;28;20067;-74
2021/05/27 14:01:37;;;;;;;5.82;1.50;;;21.40;59.20;;;;;;12054709;28;20052;-75
2021/05/27 14:07:24;;;;;;;1.88;1.30;;;21.10;59.40;;;;;;12047587;28;20048;-75
2021/05/27 14:13:11;;;;;;;5.40;1.48;;;21.00;61.30;;;;;;12050146;28;20049;-74
2021/05/27 14:18:57;;;;;;;10.70;1.88;;;21.10;61.50;;;;;;12052926;28;20052;-74
2021/05/27 14:24:44;;;;;;;5.28;1.50;;;21.20;61.20;;;;;;12047336;28;20070;-74
2021/05/27 14:30:34;;;;;;;5.50;1.83;;;21.20;60.50;;;;;;12046461;28;20053;-75
2021/05/27 14:36:20;;;;;;;4.20;1.38;;;21.60;58.50;;;;;;12053396;28;20608;-73
2021/05/27 14:42:07;;;;;;;4.95;1.58;;;22.30;57.70;;;;;;12049905;28;20103;-74
2021/05/27 14:47:54;;;;;;;9.57;1.80;;;23.00;57.10;;;;;;12046452;28;20056;-75
2021/05/27 14:53:40;;;;;;;5.35;1.85;;;23.50;57.60;;;;;;12050870;28;20051;-80
2021/05/27 14:59:27;;;;;;;6.50;2.15;;;23.70;54.10;;;;;;12046896;28;20068;-79
2021/05/27 15:05:15;;;;;;;8.57;1.70;;;23.30;54.80;;;;;;12050983;28;20047;-75
2021/05/27 15:11:01;;;;;;;3.00;1.50;;;22.80;54.40;;;;;;12047153;28;20048;-74
2021/05/27 15:16:48;;;;;;;4.43;1.60;;;22.70;56.60;;;;;;12047752;28;20699;-74
2021/05/27 15:22:35;;;;;;;3.40;1.60;;;22.90;55.80;;;;;;12045914;28;20097;-74
2021/05/27 15:28:22;;;;;;;3.58;1.30;;;23.00;54.50;;;;;;12043857;28;20044;-75
2021/05/27 15:34:08;;;;;;;3.55;1.75;;;23.50;55.40;;;;;;12042085;28;20059;-75
2021/05/27 15:39:56;;;;;;;3.17;1.70;;;24.60;52.80;;;;;;12048020;28;20106;-75
2021/05/27 15:45:43;;;;;;;5.53;1.90;;;26.30;49.10;;;;;;12048988;28;20823;-76
2021/05/27 15:51:30;;;;;;;3.20;1.60;;;27.30;46.90;;;;;;12045170;28;20052;-77
2021/05/27 15:57:17;;;;;;;10.70;1.90;;;27.50;45.80;;;;;;12052207;28;20142;-77
2021/05/27 16:03:04;;;;;;;3.40;1.67;;;26.60;48.10;;;;;;12056190;28;20045;-77
2021/05/27 16:08:50;;;;;;;8.13;1.90;;;25.50;51.00;;;;;;12056995;28;20056;-77
2021/05/27 16:14:38;;;;;;;5.50;2.90;;;24.40;50.60;;;;;;12055451;28;20044;-76
2021/05/27 16:20:24;;;;;;;5.78;2.40;;;23.70;52.80;;;;;;12058111;28;22264;-76
2021/05/27 16:26:11;;;;;;;5.03;2.88;;;23.30;53.60;;;;;;12057553;28;20514;-76
2021/05/27 16:31:58;;;;;;;6.80;2.25;;;23.20;53.20;;;;;;12052612;28;20511;-76
2021/05/27 16:43:49;;;;;;;6.43;2.20;;;22.80;55.10;;;;;;12035662;28;20102;-74
2021/05/27 16:49:37;;;;;;;3.45;2.13;;;22.60;54.70;;;;;;12043783;28;20106;-74
2021/05/27 16:55:25;;;;;;;6.55;2.63;;;22.50;54.70;;;;;;11996520;28;20056;-73
2021/05/27 17:01:11;;;;;;;17.23;9.43;;;22.40;55.00;;;;;;11998174;28;20044;-74
2021/05/27 17:06:59;;;;;;;4.88;2.45;;;22.40;55.30;;;;;;11999530;28;20044;-74
2021/05/27 17:12:45;;;;;;;5.93;3.13;;;22.30;55.40;;;;;;11997736;28;20087;-74
2021/05/27 17:18:31;;;;;;;11.60;2.63;;;22.30;55.90;;;;;;11992223;28;20151;-74
2021/05/27 17:24:18;;;;;;;12.63;3.05;;;22.20;56.20;;;;;;11985173;28;20049;-73
2021/05/27 17:30:06;;;;;;;6.63;3.08;;;22.30;55.80;;;;;;11976956;28;20056;-73
2021/05/27 17:35:53;;;;;;;5.78;2.92;;;22.30;57.70;;;;;;11966136;28;20068;-73
2021/05/27 17:41:40;;;;;;;8.15;2.50;;;22.40;58.60;;;;;;11995124;28;20068;-74
2021/05/27 17:47:26;;;;;;;5.80;2.08;;;22.30;61.00;;;;;;12000206;28;20060;-74
2021/05/27 17:53:12;;;;;;;6.82;2.00;;;22.10;65.50;;;;;;11999283;28;20052;-74
2021/05/27 17:59:00;;;;;;;4.60;2.25;;;21.80;67.80;;;;;;12001216;28;22184;-74
2021/05/27 18:04:47;;;;;;;4.32;2.20;;;21.60;67.90;;;;;;12000092;28;20049;-74
2021/05/27 18:10:33;;;;;;;7.50;2.50;;;21.50;69.00;;;;;;11998763;28;20056;-73
2021/05/27 18:16:20;;;;;;;7.85;2.53;;;22.10;65.50;;;;;;11998232;28;20071;-73
2021/05/27 18:22:07;;;;;;;9.00;3.08;;;21.70;65.10;;;;;;11996236;28;20040;-74
2021/05/27 18:27:53;;;;;;;3.25;2.30;;;21.50;67.00;;;;;;12001535;28;20105;-73
2021/05/27 18:33:40;;;;;;;8.18;2.58;;;21.80;66.30;;;;;;11993314;28;20052;-75
2021/05/27 18:39:27;;;;;;;7.60;2.42;;;21.50;68.20;;;;;;11998402;28;20063;-74
2021/05/27 18:45:14;;;;;;;6.28;2.35;;;21.40;69.10;;;;;;11994609;28;20074;-73
2021/05/27 18:51:02;;;;;;;8.68;3.03;;;22.20;71.00;;;;;;11998547;28;20052;-74
2021/05/27 18:56:48;;;;;;;5.28;2.28;;;23.10;67.20;;;;;;11994180;28;20052;-73
2021/05/27 19:02:34;;;;;;;3.92;1.98;;;23.10;67.60;;;;;;11993332;28;20105;-73
2021/05/27 19:08:22;;;;;;;8.25;2.67;;;22.50;69.20;;;;;;11992415;28;20399;-73
2021/05/27 19:14:08;;;;;;;4.80;2.55;;;21.80;71.10;;;;;;11995276;28;20400;-74
2021/05/27 19:19:55;;;;;;;4.35;2.60;;;21.30;71.90;;;;;;11997200;28;20052;-73
2021/05/27 19:25:42;;;;;;;7.72;2.40;;;20.90;72.40;;;;;;11975837;28;20056;-73
2021/05/27 19:31:28;;;;;;;4.85;2.45;;;20.70;72.70;;;;;;11996696;28;20053;-73
2021/05/27 19:37:15;;;;;;;5.38;2.80;;;20.60;73.50;;;;;;12005099;28;20122;-74
2021/05/27 19:43:02;;;;;;;8.45;2.60;;;20.40;74.80;;;;;;12004605;28;20539;-73
2021/05/27 19:48:52;;;;;;;5.63;1.88;;;20.10;75.60;;;;;;12011627;28;20805;-73
2021/05/27 19:54:38;;;;;;;7.55;2.40;;;19.80;76.10;;;;;;12000594;28;20939;-70
2021/05/27 20:00:27;;;;;;;6.57;2.20;;;19.60;76.00;;;;;;12003083;28;20056;-72
2021/05/27 20:06:13;;;;;;;3.60;2.38;;;19.40;76.50;;;;;;12004810;28;20056;-72
2021/05/27 20:12:00;;;;;;;5.93;2.67;;;19.20;75.90;;;;;;12001491;28;20052;-74
2021/05/27 20:17:47;;;;;;;6.00;2.55;;;19.00;75.60;;;;;;12000280;28;20055;-73
2021/05/27 20:23:34;;;;;;;7.78;2.63;;;18.90;76.90;;;;;;12002573;28;20055;-73
2021/05/27 20:29:20;;;;;;;8.27;2.25;;;18.70;76.70;;;;;;11993283;28;20567;-72
2021/05/27 20:35:09;;;;;;;3.70;2.13;;;18.50;77.40;;;;;;11995510;28;20853;-73
2021/05/27 20:40:55;;;;;;;7.93;2.80;;;18.40;78.40;;;;;;11975789;28;20048;-72
2021/05/27 20:46:42;;;;;;;8.32;2.30;;;18.30;78.80;;;;;;11999033;28;20049;-73
2021/05/27 20:52:29;;;;;;;6.70;2.45;;;18.10;79.40;;;;;;11990253;28;20572;-71
2021/05/27 20:58:15;;;;;;;6.88;2.95;;;18.10;80.70;;;;;;12002162;28;20095;-71
2021/05/27 21:04:01;;;;;;;7.32;2.28;;;18.10;80.80;;;;;;11997062;28;20068;-72
2021/05/27 21:09:49;;;;;;;10.20;2.55;;;18.00;81.00;;;;;;11950018;28;20059;-72
2021/05/27 21:15:35;;;;;;;11.07;3.08;;;17.80;81.80;;;;;;11996875;28;20060;-72
2021/05/27 21:21:21;;;;;;;7.32;3.00;;;17.70;81.80;;;;;;12002849;28;20045;-72
2021/05/27 21:27:09;;;;;;;6.30;2.80;;;17.70;82.10;;;;;;11995439;28;20059;-72
2021/05/27 21:32:55;;;;;;;6.10;2.90;;;17.60;82.30;;;;;;11993024;28;20053;-73
2021/05/27 21:38:41;;;;;;;4.07;2.58;;;17.50;83.00;;;;;;11994982;28;20068;-73
2021/05/27 21:44:29;;;;;;;7.80;2.90;;;17.50;83.70;;;;;;11996280;28;20064;-71
2021/05/27 21:50:15;;;;;;;6.47;3.08;;;17.40;84.80;;;;;;11973191;28;20056;-72
2021/05/27 21:56:03;;;;;;;6.10;3.25;;;17.30;84.90;;;;;;11999430;28;20769;-72
2021/05/27 22:01:50;;;;;;;7.70;3.13;;;17.10;85.40;;;;;;11991157;28;20055;-73
2021/05/27 22:07:36;;;;;;;8.10;3.47;;;17.10;86.20;;;;;;11994326;28;20048;-73
2021/05/27 22:13:23;;;;;;;9.48;3.55;;;17.20;86.90;;;;;;11968602;28;21033;-72
2021/05/27 22:19:11;;;;;;;7.60;3.20;;;17.10;87.50;;;;;;11978467;28;20086;-72
2021/05/27 22:24:57;;;;;;;6.72;3.45;;;17.10;88.10;;;;;;11993871;28;20091;-72
2021/05/27 22:30:44;;;;;;;8.55;3.03;;;17.00;88.70;;;;;;11994430;28;21078;-72
2021/05/27 22:36:32;;;;;;;6.97;3.28;;;16.90;89.80;;;;;;11999339;28;20515;-72
2021/05/27 22:42:18;;;;;;;8.25;3.78;;;16.90;89.10;;;;;;11971333;28;20071;-72
2021/05/27 22:48:05;;;;;;;5.38;3.38;;;16.90;89.10;;;;;;11974337;28;20514;-70
2021/05/27 22:53:53;;;;;;;8.05;3.75;;;16.90;89.30;;;;;;12000443;28;20938;-71
2021/05/27 22:59:39;;;;;;;5.80;3.05;;;16.80;89.90;;;;;;11995058;28;20048;-71
2021/05/27 23:05:26;;;;;;;5.85;3.10;;;16.70;89.90;;;;;;11993680;28;20057;-71
2021/05/27 23:11:13;;;;;;;5.75;3.35;;;16.70;90.10;;;;;;11993312;28;20068;-71
2021/05/27 23:17:00;;;;;;;9.02;3.72;;;16.70;90.30;;;;;;11992173;28;20056;-70
2021/05/27 23:22:46;;;;;;;6.68;3.47;;;16.60;90.40;;;;;;11991807;28;20133;-70
2021/05/27 23:28:34;;;;;;;6.53;3.33;;;16.50;91.10;;;;;;11994827;28;20049;-71
2021/05/27 23:34:20;;;;;;;9.77;3.47;;;16.40;90.90;;;;;;11990533;28;20131;-71
2021/05/27 23:40:08;;;;;;;7.30;3.65;;;16.40;91.30;;;;;;11993882;28;20542;-72
2021/05/27 23:45:55;;;;;;;7.97;3.30;;;16.30;91.40;;;;;;11996362;28;20491;-72
2021/05/27 23:51:42;;;;;;;9.30;4.07;;;16.20;91.50;;;;;;12006145;28;20098;-71
2021/05/27 23:57:28;;;;;;;6.93;3.30;;;16.30;91.50;;;;;;12023466;28;20064;-72
